Parks, Arizona
Current Conditions -  °F | °C
As of 11:57 PM on Saturday 22 Nov 2014 (Local Time) from KFLG Reporting Station
Clear Clear  
Wind Chill: -2°   Ceiling: Unl
Heat Index:   Visibility: 10mi
Dew Point: -7°   Wind: 13mph
Humidity: 48%   Direction: 250°WSW
Pressure: 30"   Gusts: NA
Location:  35.26°N, 111.95°W
Report Text: KFLG 230657Z AUTO 25011KT 10SM CLR 03/M07 A3000 RMK AO2 SLP105 T00281072 401171083 TSNO
Loading
Personal Weather Stations






























Interactive Weather Map New forecast layout! Learn more

10-Day Weather Forecast

Advertisements
Track Severe Weather on mobile